Time;durP1;ratioP1;P1;durP2;ratioP2;P2;SDS_P1;SDS_P2;PMS_P1;PMS_P2;Temp;Humidity;BMP_temperature;BMP_pressure;BME280_temperature;BME280_humidity;BME280_pressure;Samples;Min_cycle;Max_cycle;Signal;HPM_P1;HPM_P2
2022/02/08 00:02:24;;;;;;;8.80;5.20;;;9.20;36.90;;;;;;4955702;28;20069;-69
2022/02/08 00:04:50;;;;;;;10.40;4.85;;;9.10;36.90;;;;;;4955934;29;20071;-67
2022/02/08 00:07:16;;;;;;;10.50;5.15;;;9.10;37.20;;;;;;4938322;28;20031;-66
2022/02/08 00:09:42;;;;;;;11.68;5.53;;;9.10;37.20;;;;;;4955790;28;20445;-70
2022/02/08 00:12:08;;;;;;;9.23;4.75;;;9.10;37.40;;;;;;4956252;29;20114;-68
2022/02/08 00:14:34;;;;;;;9.00;5.00;;;9.00;37.30;;;;;;4956581;29;20038;-70
2022/02/08 00:17:00;;;;;;;9.10;4.72;;;9.00;37.20;;;;;;4955613;29;20392;-66
2022/02/08 00:19:26;;;;;;;12.15;4.60;;;9.00;37.20;;;;;;4955613;29;20023;-67
2022/02/08 00:21:52;;;;;;;7.72;4.72;;;9.00;37.10;;;;;;4954888;28;20023;-73
2022/02/08 00:24:18;;;;;;;9.93;4.55;;;9.00;36.70;;;;;;4955604;29;20099;-71
2022/02/08 00:26:43;;;;;;;8.90;4.28;;;9.00;36.70;;;;;;4938447;29;20059;-69
2022/02/08 00:29:09;;;;;;;8.90;5.07;;;8.90;36.70;;;;;;4955433;29;20031;-67
2022/02/08 00:31:35;;;;;;;9.75;4.75;;;8.90;36.60;;;;;;4955224;29;20039;-70
2022/02/08 00:34:00;;;;;;;8.20;4.07;;;8.90;36.60;;;;;;4955407;29;20027;-66
2022/02/08 00:36:26;;;;;;;6.55;3.67;;;8.90;36.70;;;;;;4955298;28;20175;-67
2022/02/08 00:38:53;;;;;;;8.43;4.50;;;8.80;36.40;;;;;;4955238;28;20042;-68
2022/02/08 00:41:19;;;;;;;10.10;4.30;;;8.80;36.30;;;;;;4955209;29;20032;-70
2022/02/08 00:46:16;;;;;;;8.68;4.30;;;8.80;36.50;;;;;;4955334;29;20118;-68
2022/02/08 00:48:49;;;;;;;9.68;4.75;;;8.80;36.40;;;;;;4955269;28;20248;-68
2022/02/08 00:51:17;;;;;;;9.32;4.40;;;8.80;36.50;;;;;;4938526;29;20534;-70
2022/02/08 00:53:42;;;;;;;9.07;4.60;;;8.80;36.60;;;;;;4955993;28;20419;-77
2022/02/08 00:56:08;;;;;;;8.15;4.47;;;8.80;36.70;;;;;;4955263;28;20031;-79
2022/02/08 00:58:34;;;;;;;15.30;4.60;;;8.80;37.40;;;;;;4955052;28;20038;-70
2022/02/08 01:00:59;;;;;;;6.80;4.10;;;8.70;36.70;;;;;;4955064;29;20042;-67
2022/02/08 01:03:27;;;;;;;8.18;4.25;;;8.70;36.70;;;;;;4954994;28;20025;-68
2022/02/08 01:06:03;;;;;;;7.80;4.22;;;8.70;36.80;;;;;;4954964;29;20031;-68
2022/02/08 01:08:31;;;;;;;6.65;3.85;;;8.70;36.30;;;;;;4954823;29;20414;-69
2022/02/08 01:10:59;;;;;;;9.98;4.68;;;8.60;36.30;;;;;;4954680;29;20111;-68
2022/02/08 01:13:25;;;;;;;11.38;5.38;;;8.60;36.00;;;;;;4954825;28;20027;-68
2022/02/08 01:15:51;;;;;;;9.88;4.30;;;8.60;37.30;;;;;;4954793;29;20137;-66
2022/02/08 01:18:17;;;;;;;9.82;4.22;;;8.50;36.30;;;;;;4937482;28;20106;-70
2022/02/08 01:20:43;;;;;;;9.55;4.38;;;8.50;36.20;;;;;;4954641;28;20362;-67
2022/02/08 01:23:10;;;;;;;7.38;4.28;;;8.50;36.20;;;;;;4937440;29;20114;-69
2022/02/08 01:25:46;;;;;;;7.53;4.00;;;8.50;36.00;;;;;;4954598;29;20058;-68
2022/02/08 01:31:06;;;;;;;7.78;3.78;;;8.50;36.10;;;;;;4954334;28;20083;-67
2022/02/08 01:36:31;;;;;;;7.20;3.63;;;8.50;36.10;;;;;;4958777;28;20046;-67
2022/02/08 01:39:10;;;;;;;6.57;3.55;;;8.50;35.70;;;;;;4958222;28;20472;-66
2022/02/08 01:49:30;;;;;;;7.05;3.67;;;8.50;36.10;;;;;;4938850;29;20039;-66
2022/02/08 01:51:58;;;;;;;9.02;3.42;;;8.50;35.90;;;;;;4939122;29;20411;-66
2022/02/08 01:54:26;;;;;;;9.32;3.58;;;8.50;36.40;;;;;;4939167;29;20075;-66
2022/02/08 01:56:52;;;;;;;6.53;3.35;;;8.50;36.10;;;;;;4938926;29;20031;-68
2022/02/08 01:59:20;;;;;;;7.28;3.38;;;8.50;36.30;;;;;;4938887;29;20035;-66
2022/02/08 02:01:46;;;;;;;6.28;3.20;;;8.50;36.50;;;;;;4938755;29;20023;-67
2022/02/08 02:04:12;;;;;;;7.43;3.92;;;8.40;36.70;;;;;;4938877;29;20389;-66
2022/02/08 02:06:39;;;;;;;6.85;3.33;;;8.50;36.80;;;;;;4938694;29;20482;-66
2022/02/08 02:09:05;;;;;;;6.88;3.80;;;8.50;36.60;;;;;;4938861;29;20377;-67
2022/02/08 02:11:32;;;;;;;8.23;3.45;;;8.50;37.10;;;;;;4938783;29;20027;-68
2022/02/08 02:13:58;;;;;;;8.68;4.20;;;8.50;37.10;;;;;;4938666;29;20035;-66
2022/02/08 02:19:05;;;;;;;7.38;4.20;;;8.50;37.60;;;;;;4938613;29;20027;-66
2022/02/08 02:21:31;;;;;;;11.32;4.07;;;8.40;37.40;;;;;;4938439;29;20031;-67
2022/02/08 02:23:58;;;;;;;8.10;3.42;;;8.40;37.00;;;;;;4938448;29;20449;-67
2022/02/08 02:26:24;;;;;;;7.25;3.00;;;8.40;36.40;;;;;;4938387;29;20035;-66
2022/02/08 02:28:50;;;;;;;7.10;3.33;;;8.40;36.70;;;;;;4938071;29;20027;-69
2022/02/08 02:31:19;;;;;;;7.70;3.60;;;8.40;36.90;;;;;;4921014;29;20068;-67
2022/02/08 02:33:46;;;;;;;7.18;3.25;;;8.30;36.90;;;;;;4921410;29;20107;-66
2022/02/08 02:36:14;;;;;;;5.55;2.85;;;8.30;36.30;;;;;;4938334;29;20106;-69
2022/02/08 02:38:40;;;;;;;9.30;3.33;;;8.30;36.30;;;;;;4938153;29;20385;-69
2022/02/08 02:41:06;;;;;;;6.38;3.10;;;8.30;36.20;;;;;;4938029;29;20024;-69
2022/02/08 02:43:32;;;;;;;6.78;2.97;;;8.20;36.30;;;;;;4937564;29;20329;-67
2022/02/08 02:46:01;;;;;;;5.38;2.80;;;8.20;36.10;;;;;;4937886;29;20102;-69
2022/02/08 02:48:27;;;;;;;6.45;3.10;;;8.20;36.20;;;;;;4950638;28;20057;-68
2022/02/08 02:50:54;;;;;;;6.00;2.85;;;8.20;36.30;;;;;;4957386;29;20242;-66
2022/02/08 02:53:23;;;;;;;5.88;2.83;;;8.20;36.30;;;;;;4960434;29;20117;-68
2022/02/08 02:55:49;;;;;;;5.90;3.00;;;8.20;36.90;;;;;;4961028;28;20023;-71
2022/02/08 02:58:15;;;;;;;6.32;3.00;;;8.10;36.30;;;;;;4958547;28;20023;-68
2022/02/08 03:00:48;;;;;;;6.32;3.40;;;8.10;36.30;;;;;;4958745;28;20023;-67
2022/02/08 03:03:42;;;;;;;6.18;3.05;;;8.10;36.40;;;;;;4957272;28;20031;-68
2022/02/08 03:17:34;;;;;;;7.13;3.40;;;8.10;36.20;;;;;;4939943;29;20054;-68
2022/02/08 03:17:37;;;;;;;6.00;2.78;;;8.10;36.90;;;;;;4942644;28;20116;-67
2022/02/08 03:20:04;;;;;;;7.55;3.10;;;8.10;37.00;;;;;;4956549;29;20064;-69
2022/02/08 03:22:30;;;;;;;8.43;2.97;;;8.00;37.00;;;;;;4939395;29;20055;-66
2022/02/08 03:24:56;;;;;;;6.25;3.00;;;7.90;36.90;;;;;;4939357;29;20055;-66
2022/02/08 03:27:22;;;;;;;6.85;3.20;;;7.90;37.10;;;;;;4956383;29;20613;-70
2022/02/08 03:29:48;;;;;;;7.78;3.15;;;7.80;37.10;;;;;;4956638;28;20228;-67
2022/02/08 03:32:17;;;;;;;6.35;3.03;;;7.70;37.00;;;;;;4955721;29;20036;-67
2022/02/08 03:34:43;;;;;;;5.35;3.15;;;7.70;36.90;;;;;;4956319;29;20035;-69
2022/02/08 03:37:09;;;;;;;6.50;3.00;;;7.60;37.00;;;;;;4956270;29;20380;-67
2022/02/08 03:39:38;;;;;;;5.93;2.72;;;7.60;36.90;;;;;;4956451;29;20396;-68
2022/02/08 03:42:30;;;;;;;5.90;3.05;;;7.60;37.10;;;;;;4956401;29;20086;-66
2022/02/08 03:44:56;;;;;;;6.35;3.10;;;7.70;37.30;;;;;;4955627;28;20164;-68
2022/02/08 03:47:21;;;;;;;5.22;2.45;;;7.60;36.90;;;;;;4956099;28;20133;-67
2022/02/08 03:49:48;;;;;;;4.93;2.80;;;7.60;37.10;;;;;;4956091;29;20031;-68
2022/02/08 03:52:14;;;;;;;6.05;2.88;;;7.60;37.20;;;;;;4957528;28;20148;-68
2022/02/08 03:54:40;;;;;;;5.95;2.95;;;7.60;37.20;;;;;;4957991;29;20461;-69
2022/02/08 03:57:08;;;;;;;8.68;2.80;;;7.50;37.10;;;;;;4955267;28;20465;-67
2022/02/08 03:59:35;;;;;;;5.80;2.70;;;7.50;37.10;;;;;;4956086;28;20480;-68
2022/02/08 04:02:27;;;;;;;7.40;2.67;;;7.50;37.10;;;;;;4955929;29;20026;-67
2022/02/08 04:07:44;;;;;;;6.07;2.75;;;7.50;37.10;;;;;;4956163;29;20058;-69
2022/02/08 04:10:06;;;;;;;4.93;2.28;;;7.50;36.90;;;;;;4955098;29;20038;-70
2022/02/08 04:13:45;;;;;;;5.53;2.42;;;7.50;37.30;;;;;;4955644;29;20034;-69
2022/02/08 04:47:46;;;;;;;4.47;2.03;;;7.60;36.20;;;;;;4954997;28;20515;-67
2022/02/08 04:50:16;;;;;;;7.55;2.47;;;7.50;36.10;;;;;;4954918;29;20131;-66
2022/02/08 04:52:42;;;;;;;6.65;2.00;;;7.60;36.10;;;;;;4955126;29;20481;-66
2022/02/08 04:57:50;;;;;;;5.25;2.00;;;7.50;36.30;;;;;;4954852;29;20027;-66
2022/02/08 05:00:31;;;;;;;3.80;2.03;;;7.50;36.30;;;;;;4955202;29;20102;-66
2022/02/08 05:35:59;;;;;;;6.00;2.38;;;7.50;38.00;;;;;;4954869;29;19917;-65
2022/02/08 05:49:04;;;;;;;9.25;2.25;;;7.20;37.60;;;;;;4954429;29;20051;-67
2022/02/08 05:52:22;;;;;;;6.80;2.50;;;7.10;37.60;;;;;;4955115;29;20106;-68
2022/02/08 05:54:16;;;;;;;6.15;2.70;;;7.10;37.70;;;;;;4940731;28;20119;-69
2022/02/08 05:56:42;;;;;;;7.13;3.50;;;7.20;38.10;;;;;;4954411;28;20035;-68
2022/02/08 05:59:10;;;;;;;7.50;2.90;;;7.20;38.10;;;;;;4954480;29;20058;-67
2022/02/08 06:01:36;;;;;;;8.07;2.95;;;7.20;38.10;;;;;;4954724;28;20055;-67
2022/02/08 06:04:02;;;;;;;7.68;3.33;;;7.20;37.90;;;;;;4954407;29;20035;-70
2022/02/08 06:06:31;;;;;;;9.55;2.60;;;7.20;38.50;;;;;;4954326;28;20023;-65
2022/02/08 06:08:56;;;;;;;5.15;2.50;;;7.10;38.10;;;;;;4954286;29;20063;-66
2022/02/08 06:11:24;;;;;;;7.05;2.70;;;7.10;38.40;;;;;;4953837;29;20512;-69
2022/02/08 06:13:52;;;;;;;7.15;2.63;;;7.10;38.80;;;;;;4954208;28;20042;-70
2022/02/08 06:16:20;;;;;;;7.85;2.83;;;7.10;38.60;;;;;;4937510;28;20058;-71
2022/02/08 06:18:46;;;;;;;8.25;3.25;;;7.00;38.60;;;;;;4937570;29;20090;-69
2022/02/08 06:21:13;;;;;;;6.85;3.15;;;7.10;39.00;;;;;;4940487;29;20376;-66
2022/02/08 06:23:39;;;;;;;9.02;3.42;;;7.10;38.90;;;;;;4957875;29;20023;-69
2022/02/08 06:26:06;;;;;;;20.73;4.78;;;7.20;39.10;;;;;;4957437;28;20024;-66
2022/02/08 06:28:31;;;;;;;19.48;4.28;;;7.20;38.90;;;;;;4957340;28;20101;-67
2022/02/08 06:30:57;;;;;;;11.45;3.45;;;7.20;39.20;;;;;;4957393;29;20082;-69
2022/02/08 06:33:26;;;;;;;7.75;3.67;;;7.20;38.90;;;;;;4957320;29;20023;-70
2022/02/08 06:35:55;;;;;;;7.28;3.40;;;7.20;40.50;;;;;;4957322;28;20476;-74
2022/02/08 06:38:27;;;;;;;5.63;3.28;;;7.20;39.60;;;;;;4953544;28;20190;-74
2022/02/08 06:40:56;;;;;;;9.23;3.17;;;7.30;41.30;;;;;;4959269;28;20038;-70
2022/02/08 06:43:26;;;;;;;10.68;3.95;;;7.30;41.00;;;;;;4942296;29;20032;-73
2022/02/08 06:45:53;;;;;;;10.52;4.00;;;7.30;39.60;;;;;;4957934;29;20059;-76
2022/02/08 06:48:19;;;;;;;42.40;7.10;;;7.30;40.30;;;;;;4956512;29;20066;-70
2022/02/08 06:50:44;;;;;;;11.85;3.95;;;7.40;40.70;;;;;;4957313;28;20039;-70
2022/02/08 06:53:10;;;;;;;8.68;3.63;;;7.50;40.40;;;;;;4957219;29;20034;-72
2022/02/08 06:55:36;;;;;;;11.50;3.63;;;7.50;40.20;;;;;;4956831;28;20130;-68
2022/02/08 06:58:07;;;;;;;10.35;4.15;;;7.50;40.10;;;;;;4939115;29;20122;-69
2022/02/08 07:00:40;;;;;;;9.27;3.80;;;7.60;39.90;;;;;;4956664;29;20031;-67
2022/02/08 07:03:09;;;;;;;8.17;2.50;;;7.60;39.60;;;;;;4956763;28;20019;-71
2022/02/08 07:05:36;;;;;;;15.98;4.43;;;7.80;39.40;;;;;;4939300;29;20043;-74
2022/02/08 07:08:02;;;;;;;14.27;3.63;;;7.90;39.00;;;;;;4956283;29;20401;-67
2022/02/08 07:10:29;;;;;;;6.93;3.33;;;8.00;39.50;;;;;;4956886;29;20480;-70
2022/02/08 07:12:56;;;;;;;11.95;3.85;;;8.20;39.30;;;;;;4957574;29;20024;-71
2022/02/08 07:15:24;;;;;;;15.75;3.60;;;8.50;42.20;;;;;;4919628;29;20115;-76
2022/02/08 07:17:51;;;;;;;15.77;3.00;;;8.60;40.40;;;;;;4918680;29;20028;-74
2022/02/08 07:20:19;;;;;;;5.80;2.67;;;8.60;40.20;;;;;;4918778;29;20017;-77
2022/02/08 07:22:45;;;;;;;8.73;3.15;;;8.70;38.60;;;;;;4918971;29;20024;-72
2022/02/08 07:25:11;;;;;;;7.20;2.50;;;8.80;38.60;;;;;;4919072;29;20048;-71
2022/02/08 07:27:37;;;;;;;8.80;2.55;;;8.80;38.40;;;;;;4919536;29;20342;-69
2022/02/08 07:30:13;;;;;;;11.75;3.00;;;8.80;38.30;;;;;;4919280;29;20040;-73
2022/02/08 07:32:41;;;;;;;7.63;2.78;;;8.80;38.60;;;;;;4918753;29;20461;-68
2022/02/08 07:37:51;;;;;;;12.20;3.10;;;8.90;38.50;;;;;;4919608;29;20043;-71
2022/02/08 07:40:29;;;;;;;7.93;3.17;;;9.00;39.20;;;;;;4918252;29;20470;-72
2022/02/08 07:42:56;;;;;;;9.80;3.20;;;9.10;38.60;;;;;;4902729;29;20486;-72
2022/02/08 07:45:26;;;;;;;7.60;2.90;;;9.20;38.80;;;;;;4917472;29;20040;-70
2022/02/08 07:47:52;;;;;;;7.93;2.90;;;9.30;39.20;;;;;;4917740;29;20044;-68
2022/02/08 07:50:21;;;;;;;7.68;2.90;;;9.30;38.40;;;;;;4917898;29;20386;-68
2022/02/08 07:52:50;;;;;;;8.65;2.97;;;9.30;38.60;;;;;;4918367;29;20474;-70
2022/02/08 07:55:18;;;;;;;7.60;3.60;;;9.50;39.20;;;;;;4901077;29;20032;-71
2022/02/08 07:57:45;;;;;;;6.80;3.28;;;9.60;39.80;;;;;;4918047;29;20402;-78
2022/02/08 08:00:15;;;;;;;11.25;3.55;;;9.70;38.60;;;;;;4918254;29;20024;-83
2022/02/08 08:02:44;;;;;;;11.57;5.47;;;9.70;38.70;;;;;;4918019;29;20080;-72
2022/02/08 08:05:10;;;;;;;16.58;3.70;;;9.60;39.00;;;;;;4919136;29;20028;-75
2022/02/08 08:07:37;;;;;;;10.43;3.95;;;9.50;38.50;;;;;;4920006;29;20028;-69
2022/02/08 08:10:04;;;;;;;12.05;3.80;;;9.60;39.60;;;;;;4919650;29;20062;-69
2022/02/08 08:12:33;;;;;;;8.82;3.85;;;9.50;39.10;;;;;;4920406;29;20474;-70
2022/02/08 08:15:09;;;;;;;13.85;4.03;;;9.60;39.20;;;;;;4905359;29;20107;-69
2022/02/08 08:17:55;;;;;;;7.75;3.10;;;9.60;38.80;;;;;;4902458;29;20547;-70
2022/02/08 08:20:21;;;;;;;11.52;4.28;;;9.40;39.00;;;;;;4916182;29;20039;-70
2022/02/08 08:22:47;;;;;;;9.75;3.40;;;9.30;38.80;;;;;;4919676;29;20059;-69
2022/02/08 08:25:13;;;;;;;10.80;3.90;;;9.30;38.70;;;;;;4919278;29;20035;-77
2022/02/08 08:27:40;;;;;;;11.70;3.53;;;9.20;39.20;;;;;;4919452;29;20033;-80
2022/02/08 08:30:09;;;;;;;8.70;3.35;;;9.30;39.10;;;;;;4918905;29;20115;-67
2022/02/08 08:32:42;;;;;;;7.00;3.03;;;9.20;39.00;;;;;;4922927;29;20043;-72
2022/02/08 08:35:20;;;;;;;11.30;3.10;;;9.20;39.10;;;;;;4931517;29;20071;-74
2022/02/08 08:37:49;;;;;;;9.43;3.03;;;9.20;39.50;;;;;;4930696;29;20024;-70
2022/02/08 08:40:40;;;;;;;12.27;3.50;;;9.20;39.60;;;;;;4928084;29;20020;-68
2022/02/08 08:43:27;;;;;;;13.50;3.35;;;9.20;39.00;;;;;;4918783;29;20183;-73
2022/02/08 08:48:41;;;;;;;10.10;4.07;;;9.30;38.90;;;;;;4918997;29;20651;-78
2022/02/08 08:53:46;;;;;;;8.10;3.60;;;9.30;38.90;;;;;;4918410;29;20036;-74
2022/02/08 08:56:13;;;;;;;11.88;3.65;;;9.30;38.70;;;;;;4901603;29;20497;-74
2022/02/08 08:58:48;;;;;;;9.65;4.03;;;9.40;39.60;;;;;;4918730;29;20490;-68
2022/02/08 09:01:14;;;;;;;7.88;3.60;;;9.50;38.90;;;;;;4918546;29;20027;-69
2022/02/08 09:03:41;;;;;;;7.55;3.58;;;9.60;38.90;;;;;;4917070;29;20397;-76
2022/02/08 09:06:11;;;;;;;9.85;3.88;;;9.60;39.10;;;;;;4917016;29;20040;-72
2022/02/08 09:08:41;;;;;;;10.20;4.22;;;9.70;39.20;;;;;;4901448;29;20506;-78
2022/02/08 09:13:48;;;;;;;14.40;3.72;;;9.90;39.50;;;;;;4918252;29;20478;-72
2022/02/08 09:16:40;;;;;;;11.02;4.18;;;9.90;39.40;;;;;;4903456;29;20516;-74
2022/02/08 09:24:55;;;;;;;16.05;4.10;;;10.10;38.20;;;;;;4916910;29;20039;-77
2022/02/08 09:30:11;;;;;;;11.57;4.22;;;10.20;38.30;;;;;;4917494;29;20038;-80
2022/02/08 09:32:53;;;;;;;10.27;4.13;;;10.30;38.50;;;;;;4916672;29;20090;-75
2022/02/08 09:35:21;;;;;;;9.77;3.85;;;10.30;38.00;;;;;;4917748;29;20415;-77
2022/02/08 09:37:48;;;;;;;7.30;3.67;;;10.40;37.90;;;;;;4917603;29;20393;-76
2022/02/08 09:40:21;;;;;;;13.90;4.38;;;10.50;38.20;;;;;;4917710;29;20047;-71
2022/02/08 09:42:49;;;;;;;10.90;3.60;;;10.50;37.70;;;;;;4918189;29;20032;-77
2022/02/08 09:45:18;;;;;;;8.07;3.60;;;10.60;37.60;;;;;;4917935;29;20036;-73
2022/02/08 09:47:56;;;;;;;7.22;3.35;;;10.60;37.40;;;;;;4917962;29;20032;-71
2022/02/08 09:50:27;;;;;;;13.43;4.28;;;10.70;36.70;;;;;;4918635;29;20482;-71
2022/02/08 09:53:00;;;;;;;8.55;3.70;;;10.80;37.00;;;;;;4918909;29;20103;-71
2022/02/08 09:55:31;;;;;;;;;;;10.90;36.50;;;;;;4904667;29;20111;-68
2022/02/08 09:57:57;;;;;;;6.43;3.00;;;11.00;35.70;;;;;;4921750;29;20377;-71
2022/02/08 10:00:25;;;;;;;9.43;3.70;;;11.00;36.20;;;;;;4922364;29;20536;-75
2022/02/08 10:03:03;;;;;;;12.45;3.70;;;11.10;36.50;;;;;;4924569;29;20031;-72
2022/02/08 10:05:40;;;;;;;20.27;3.60;;;11.30;36.20;;;;;;4907321;29;20047;-69
2022/02/08 10:08:07;;;;;;;7.60;2.92;;;11.30;36.50;;;;;;4909695;29;20036;-72
2022/02/08 10:10:33;;;;;;;7.90;2.80;;;11.40;36.20;;;;;;4925524;29;20040;-75
2022/02/08 10:24:06;;;;;;;8.75;3.40;;;11.90;35.20;;;;;;4921161;29;20043;-70
2022/02/08 10:37:39;;;;;;;8.65;2.42;;;12.40;34.40;;;;;;4921949;29;20201;-72
2022/02/08 10:40:12;;;;;;;22.77;4.78;;;12.40;34.10;;;;;;4921962;29;20441;-71
2022/02/08 10:42:43;;;;;;;11.02;2.92;;;12.50;34.40;;;;;;4920653;29;20103;-69
2022/02/08 10:45:25;;;;;;;6.75;2.60;;;12.60;34.30;;;;;;4918880;29;20049;-71
2022/02/08 10:47:55;;;;;;;8.10;2.63;;;12.70;34.00;;;;;;4920191;29;20036;-68
2022/02/08 10:50:23;;;;;;;6.70;2.53;;;12.70;33.60;;;;;;4919747;29;20085;-72
2022/02/08 10:52:58;;;;;;;8.57;2.13;;;12.80;33.90;;;;;;4919134;29;20545;-73
2022/02/08 11:01:04;;;;;;;9.25;2.80;;;13.00;32.60;;;;;;4920480;29;20119;-77
2022/02/08 11:04:04;;;;;;;9.98;2.50;;;13.10;31.10;;;;;;4902894;29;20136;-73
2022/02/08 11:06:48;;;;;;;6.43;2.25;;;13.30;32.50;;;;;;4918899;29;20049;-75
2022/02/08 11:17:34;;;;;;;5.18;1.63;;;13.70;31.60;;;;;;4918869;29;20119;-71
2022/02/08 11:23:13;;;;;;;4.10;1.38;;;13.80;29.80;;;;;;4902754;29;20028;-80
2022/02/08 11:25:42;;;;;;;2.88;1.52;;;13.90;31.10;;;;;;4919927;29;20028;-69
2022/02/08 11:39:15;;;;;;;3.00;1.37;;;14.20;28.80;;;;;;4919696;29;20031;-75
2022/02/08 11:50:02;;;;;;;3.72;1.50;;;14.50;28.10;;;;;;4919853;29;20063;-69
2022/02/08 11:58:16;;;;;;;2.72;1.00;;;14.60;25.80;;;;;;4903778;29;20569;-80
2022/02/08 12:00:45;;;;;;;2.03;1.00;;;14.70;26.20;;;;;;4917814;29;20497;-76
2022/02/08 12:05:50;;;;;;;2.55;1.20;;;14.70;24.90;;;;;;4918005;29;20032;-78
2022/02/08 12:08:17;;;;;;;3.72;1.50;;;14.70;25.30;;;;;;4917447;29;20036;-78
2022/02/08 12:10:52;;;;;;;3.03;1.20;;;14.80;24.60;;;;;;4917986;29;20044;-75
2022/02/08 12:13:57;;;;;;;5.38;1.67;;;14.80;24.40;;;;;;4920409;29;20044;-72
2022/02/08 12:33:55;;;;;;;4.10;1.80;;;15.30;24.60;;;;;;4918089;29;20063;-73
2022/02/08 12:36:12;;;;;;;4.30;1.80;;;15.30;24.30;;;;;;4907636;29;20028;-78
2022/02/08 13:00:28;;;;;;;5.07;2.42;;;15.80;23.80;;;;;;4901175;29;20036;-73
2022/02/08 13:03:40;;;;;;;5.53;1.50;;;15.80;23.40;;;;;;4915526;29;20036;-76
2022/02/08 14:06:53;;;;;;;1.98;1.10;;;16.40;21.20;;;;;;4920201;29;19939;-68
2022/02/08 14:17:34;;;;;;;4.68;1.95;;;16.40;21.70;;;;;;4919760;29;20099;-68
2022/02/08 14:25:30;;;;;;;2.90;1.38;;;16.30;21.30;;;;;;4903161;29;20040;-68
2022/02/08 14:30:57;;;;;;;3.10;1.33;;;16.30;21.80;;;;;;4918993;29;20079;-69
2022/02/08 14:33:45;;;;;;;3.45;1.40;;;16.30;21.60;;;;;;4919035;29;20032;-67
2022/02/08 14:36:47;;;;;;;5.93;1.90;;;16.30;21.10;;;;;;4917852;29;20036;-69
2022/02/08 15:09:21;;;;;;;3.60;1.75;;;16.20;21.50;;;;;;4918049;29;20025;-67
2022/02/08 15:14:39;;;;;;;4.82;1.92;;;16.30;21.60;;;;;;4918330;29;20048;-69
2022/02/08 15:17:06;;;;;;;4.18;1.50;;;16.30;21.50;;;;;;4917957;29;20552;-69
2022/02/08 15:19:34;;;;;;;8.57;2.40;;;16.30;21.30;;;;;;4918122;29;20478;-68
2022/02/08 15:22:03;;;;;;;3.83;1.80;;;16.30;21.90;;;;;;4901140;29;20031;-68
2022/02/08 15:24:29;;;;;;;2.85;1.30;;;16.30;21.80;;;;;;4918329;29;20036;-70
2022/02/08 15:26:55;;;;;;;3.72;1.27;;;16.20;21.10;;;;;;4918452;29;20107;-68
2022/02/08 15:29:27;;;;;;;4.85;1.50;;;16.10;21.50;;;;;;4918331;29;20028;-73
2022/02/08 15:31:56;;;;;;;4.68;1.48;;;16.10;20.70;;;;;;4918322;29;20044;-69
2022/02/08 15:34:24;;;;;;;6.80;1.65;;;16.00;20.80;;;;;;4917912;29;20442;-70
2022/02/08 15:36:49;;;;;;;6.40;1.63;;;16.00;21.80;;;;;;4917901;29;20032;-68
2022/02/08 15:39:16;;;;;;;4.18;1.30;;;16.00;21.00;;;;;;4917867;29;20063;-68
2022/02/08 15:41:45;;;;;;;5.78;1.58;;;16.00;21.00;;;;;;4918016;29;20171;-69
2022/02/08 15:44:20;;;;;;;4.70;1.80;;;15.90;21.40;;;;;;4917782;29;20091;-68
2022/02/08 15:46:49;;;;;;;5.47;1.60;;;15.90;21.50;;;;;;4917734;29;20421;-72
2022/02/08 15:49:18;;;;;;;4.45;1.30;;;15.90;21.80;;;;;;4917387;29;20449;-69
2022/02/08 15:51:46;;;;;;;3.42;1.30;;;15.80;21.70;;;;;;4917354;29;20163;-71
2022/02/08 16:07:51;;;;;;;4.40;1.80;;;15.50;22.60;;;;;;4917607;29;20532;-70
2022/02/08 16:10:13;;;;;;;6.38;1.63;;;15.40;21.60;;;;;;4916538;29;20047;-68
2022/02/08 16:23:17;;;;;;;4.88;2.08;;;15.00;23.00;;;;;;4917515;29;20043;-67
2022/02/08 17:01:09;;;;;;;3.78;1.80;;;14.20;25.00;;;;;;4840191;29;20392;-68
2022/02/08 17:03:37;;;;;;;9.30;2.58;;;14.20;25.20;;;;;;4889379;29;20044;-69
2022/02/08 17:06:03;;;;;;;7.20;3.17;;;14.10;25.60;;;;;;4916996;29;20047;-68
2022/02/08 17:08:29;;;;;;;4.38;2.00;;;14.00;26.20;;;;;;4917053;29;20389;-71
2022/02/08 17:10:58;;;;;;;8.85;2.30;;;13.90;26.70;;;;;;4916735;29;20485;-71
2022/02/08 17:14:01;;;;;;;5.43;2.25;;;13.90;26.60;;;;;;4899890;29;20075;-68
2022/02/08 17:45:48;;;;;;;6.25;3.25;;;13.20;29.20;;;;;;4917283;29;20365;-70
2022/02/08 17:48:14;;;;;;;7.20;3.20;;;13.20;29.30;;;;;;4903217;29;20032;-71
2022/02/08 17:50:40;;;;;;;7.50;3.35;;;13.10;30.10;;;;;;4917325;29;20107;-72
2022/02/08 17:53:07;;;;;;;8.05;3.03;;;13.10;30.40;;;;;;4917447;29;20028;-74
2022/02/08 17:55:35;;;;;;;7.43;3.00;;;13.00;30.40;;;;;;4900390;29;20028;-71
2022/02/08 17:58:02;;;;;;;5.90;2.67;;;13.00;29.80;;;;;;4916461;29;20439;-70
2022/02/08 18:00:32;;;;;;;7.95;2.78;;;12.90;31.10;;;;;;4917020;29;20036;-74
2022/02/08 18:03:02;;;;;;;6.22;2.63;;;12.90;31.10;;;;;;4901350;29;20430;-71
2022/02/08 18:05:29;;;;;;;6.57;2.85;;;12.90;30.30;;;;;;4917049;29;20031;-68
2022/02/08 18:07:57;;;;;;;7.15;3.00;;;12.90;31.90;;;;;;4917252;29;20390;-69
2022/02/08 18:10:24;;;;;;;6.55;2.95;;;12.90;32.00;;;;;;4916236;29;20037;-69
2022/02/08 18:12:54;;;;;;;8.02;2.83;;;12.80;32.10;;;;;;4916292;29;20079;-67
2022/02/08 18:15:25;;;;;;;7.63;3.38;;;12.80;32.30;;;;;;4917245;29;20413;-70
2022/02/08 18:17:53;;;;;;;5.75;2.95;;;12.80;31.00;;;;;;4919645;29;20032;-68
2022/02/08 18:20:47;;;;;;;6.68;2.72;;;12.70;31.50;;;;;;4919593;29;20059;-68
2022/02/08 18:27:04;;;;;;;9.57;3.30;;;12.60;32.80;;;;;;4876464;29;20032;-69
2022/02/08 19:07:22;;;;;;;8.98;3.85;;;12.30;35.90;;;;;;4918393;29;19913;-69
2022/02/08 19:10:10;;;;;;;8.32;3.35;;;12.20;36.70;;;;;;4918203;29;20035;-67
2022/02/08 19:12:41;;;;;;;6.80;3.22;;;12.20;35.80;;;;;;4917630;29;20111;-71
2022/02/08 19:22:38;;;;;;;8.98;3.60;;;12.10;38.10;;;;;;4918026;29;20502;-68
2022/02/08 19:25:08;;;;;;;16.08;4.05;;;12.10;38.90;;;;;;4918077;29;20036;-67
2022/02/08 19:27:37;;;;;;;7.85;4.20;;;12.00;39.20;;;;;;4901331;29;20076;-68
2022/02/08 19:30:06;;;;;;;8.85;4.13;;;12.00;39.20;;;;;;4917729;29;20040;-67
2022/02/08 19:32:33;;;;;;;10.15;4.53;;;12.00;39.00;;;;;;4917955;29;20382;-68
2022/02/08 19:34:59;;;;;;;8.15;4.07;;;11.90;39.50;;;;;;4917761;29;20035;-70
2022/02/08 19:37:25;;;;;;;7.35;3.55;;;11.90;40.20;;;;;;4917587;29;20533;-68
2022/02/08 19:39:50;;;;;;;10.80;3.78;;;11.90;40.20;;;;;;4917215;29;20071;-70
2022/02/08 19:42:16;;;;;;;11.13;3.53;;;11.80;40.40;;;;;;4917632;29;20457;-69
2022/02/08 19:44:42;;;;;;;6.45;3.22;;;11.80;40.90;;;;;;4917540;29;20020;-68
2022/02/08 19:47:09;;;;;;;6.60;3.63;;;11.80;40.80;;;;;;4917683;29;20032;-67
2022/02/08 19:49:35;;;;;;;8.60;3.75;;;11.80;40.60;;;;;;4917187;29;20044;-68
2022/02/08 19:52:04;;;;;;;15.80;3.90;;;11.90;41.40;;;;;;4916470;29;20102;-71
2022/02/08 19:54:37;;;;;;;7.22;3.65;;;11.90;41.00;;;;;;4917464;29;20024;-69
2022/02/08 19:57:13;;;;;;;10.85;3.55;;;11.90;41.30;;;;;;4917139;29;20039;-70
2022/02/08 19:59:41;;;;;;;10.30;4.22;;;11.90;41.30;;;;;;4917264;29;20112;-70
2022/02/08 20:02:11;;;;;;;9.73;4.65;;;11.90;41.40;;;;;;4917290;29;20033;-68
2022/02/08 20:04:39;;;;;;;8.57;4.07;;;11.90;41.60;;;;;;4917190;29;20024;-68
2022/02/08 20:07:07;;;;;;;12.38;4.10;;;11.80;41.50;;;;;;4917222;29;20032;-69
2022/02/08 20:09:33;;;;;;;8.20;4.07;;;11.90;41.80;;;;;;4945169;28;20046;-73
2022/02/08 20:12:00;;;;;;;12.70;4.70;;;11.80;42.40;;;;;;4954667;28;20046;-70
2022/02/08 20:14:26;;;;;;;10.90;5.50;;;11.80;42.00;;;;;;4937699;29;20023;-68
2022/02/08 20:16:52;;;;;;;10.38;5.25;;;11.80;42.00;;;;;;4954915;28;20503;-70
2022/02/08 20:19:20;;;;;;;11.32;4.95;;;11.70;42.10;;;;;;4937338;29;20384;-70
2022/02/08 20:21:48;;;;;;;11.90;5.72;;;11.60;41.90;;;;;;4937958;29;20082;-70
2022/02/08 20:24:17;;;;;;;14.60;7.78;;;11.50;42.10;;;;;;4953605;29;20384;-69
2022/02/08 20:29:16;;;;;;;12.57;7.43;;;11.50;42.30;;;;;;4954755;29;20500;-67
2022/02/08 20:31:47;;;;;;;13.95;5.95;;;11.50;42.20;;;;;;4954448;28;20045;-67
2022/02/08 20:34:20;;;;;;;15.13;6.95;;;11.50;42.20;;;;;;4953598;28;20102;-68
2022/02/08 20:36:47;;;;;;;12.20;6.57;;;11.50;42.70;;;;;;4953884;28;20027;-70
2022/02/08 20:39:16;;;;;;;11.70;6.60;;;11.60;42.40;;;;;;4936492;29;20024;-71
2022/02/08 20:41:43;;;;;;;12.75;6.25;;;11.50;42.50;;;;;;4954215;29;20465;-70
2022/02/08 20:44:13;;;;;;;15.75;6.30;;;11.50;42.40;;;;;;4937032;29;20401;-69
2022/02/08 20:46:40;;;;;;;10.50;5.80;;;11.50;42.60;;;;;;4937726;29;20028;-70
2022/02/08 20:49:06;;;;;;;13.55;6.22;;;11.50;42.50;;;;;;4954007;29;20526;-69
2022/02/08 20:51:32;;;;;;;10.50;5.22;;;11.50;42.50;;;;;;4936716;29;20035;-68
2022/02/08 20:54:04;;;;;;;13.68;6.95;;;11.50;42.40;;;;;;4954370;28;20102;-67
2022/02/08 20:56:36;;;;;;;14.85;6.80;;;11.50;42.30;;;;;;4954150;29;20054;-72
2022/02/08 20:59:10;;;;;;;13.88;6.75;;;11.40;42.40;;;;;;4954106;28;20110;-67
2022/02/08 21:01:40;;;;;;;10.95;7.38;;;11.40;42.20;;;;;;4937970;29;20050;-68
2022/02/08 21:04:40;;;;;;;14.40;6.90;;;11.40;42.20;;;;;;4936945;29;20107;-69
2022/02/08 21:07:04;;;;;;;16.93;7.03;;;11.40;41.90;;;;;;4937834;29;20058;-69
2022/02/08 21:09:30;;;;;;;10.90;6.25;;;11.40;41.80;;;;;;4938763;29;20113;-71